createdAt,value
2022-11-05T00:00:50.370Z,50.885536
2022-11-05T00:01:50.406Z,50.885490
2022-11-05T00:02:50.341Z,50.885571
2022-11-05T00:03:51.339Z,50.885593
2022-11-05T00:04:50.330Z,50.885540
2022-11-05T00:05:50.328Z,50.885571
2022-11-05T00:06:50.408Z,50.885567
2022-11-05T00:07:50.291Z,50.885483
2022-11-05T00:08:50.270Z,50.885445
2022-11-05T00:09:50.280Z,50.885494
2022-11-05T00:10:50.268Z,50.885471
2022-11-05T00:11:50.304Z,50.885487
2022-11-05T00:12:50.268Z,50.885567
2022-11-05T00:13:50.273Z,50.885567
2022-11-05T00:14:51.056Z,50.885574
2022-11-05T00:15:50.250Z,50.885513
2022-11-05T00:16:50.242Z,50.885536
2022-11-05T00:17:50.258Z,50.885529
2022-11-05T00:18:50.224Z,50.885620
2022-11-05T00:19:50.221Z,50.885639
2022-11-05T00:20:50.230Z,50.885689
2022-11-05T00:21:50.255Z,50.885532
2022-11-05T00:22:50.244Z,50.885502
2022-11-05T00:23:50.274Z,50.885563
2022-11-05T00:24:50.191Z,50.885551
2022-11-05T00:25:50.170Z,50.885513
2022-11-05T00:26:50.183Z,50.885525
2022-11-05T00:27:50.172Z,50.885540
2022-11-05T00:28:50.401Z,50.885601
2022-11-05T00:29:50.153Z,50.885571
2022-11-05T00:30:50.136Z,50.885624
2022-11-05T00:31:50.130Z,50.885628
2022-11-05T00:32:50.157Z,50.885597
2022-11-05T00:33:50.181Z,50.885616
2022-11-05T00:34:50.127Z,50.885624
2022-11-05T00:35:50.138Z,50.885666
2022-11-05T00:36:50.098Z,50.885632
2022-11-05T00:37:50.797Z,50.885628
2022-11-05T00:38:51.111Z,50.885590
2022-11-05T00:39:50.142Z,50.885578
2022-11-05T00:40:50.093Z,50.885586
2022-11-05T00:41:50.110Z,50.885574
2022-11-05T00:42:50.065Z,50.885609
2022-11-05T00:43:50.075Z,50.885494
2022-11-05T00:44:50.182Z,50.885586
2022-11-05T00:45:50.085Z,50.885544
2022-11-05T00:46:50.047Z,50.885616
2022-11-05T00:47:50.061Z,50.885590
2022-11-05T00:48:50.036Z,50.885651
2022-11-05T00:49:50.043Z,50.885605
2022-11-05T00:50:50.026Z,50.885597
2022-11-05T00:51:50.631Z,50.885635
2022-11-05T00:52:50.010Z,50.885654
2022-11-05T00:53:50.008Z,50.885700
2022-11-05T00:54:50.011Z,50.885658
2022-11-05T00:55:50.111Z,50.885609
2022-11-05T00:56:49.985Z,50.885559
2022-11-05T00:57:49.988Z,50.885559
2022-11-05T00:58:49.959Z,50.885571
2022-11-05T00:59:49.958Z,50.885578
2022-11-05T01:00:50.003Z,50.885571
2022-11-05T01:01:50.047Z,50.885616
2022-11-05T01:02:50.091Z,50.885513
2022-11-05T01:03:51.834Z,50.885567
2022-11-05T01:04:50.908Z,50.885586
2022-11-05T01:05:49.933Z,50.885498
2022-11-05T01:06:50.040Z,50.885574
2022-11-05T01:07:49.909Z,50.885555
2022-11-05T01:08:49.916Z,50.885559
2022-11-05T01:09:49.908Z,50.885529
2022-11-05T01:10:49.883Z,50.885509
2022-11-05T01:11:51.003Z,50.885487
2022-11-05T01:12:49.881Z,50.885540
2022-11-05T01:13:49.861Z,50.885574
2022-11-05T01:14:49.883Z,50.885525
2022-11-05T01:15:49.864Z,50.885498
2022-11-05T01:16:49.870Z,50.885529
2022-11-05T01:17:49.891Z,50.885445
2022-11-05T01:18:49.838Z,50.885529
2022-11-05T01:19:49.840Z,50.885548
2022-11-05T01:20:49.832Z,50.885536
2022-11-05T01:21:49.830Z,50.885536
2022-11-05T01:22:49.934Z,50.885559
2022-11-05T01:23:49.802Z,50.885475
2022-11-05T01:24:49.805Z,50.885498
2022-11-05T01:25:49.844Z,50.885498
2022-11-05T01:26:49.800Z,50.885544
2022-11-05T01:27:49.790Z,50.885612
2022-11-05T01:28:49.897Z,50.885395
2022-11-05T01:29:49.772Z,50.885532
2022-11-05T01:30:49.805Z,50.885609
2022-11-05T01:31:49.757Z,50.885563
2022-11-05T01:32:49.760Z,50.885506
2022-11-05T01:33:49.871Z,50.885380
2022-11-05T01:34:49.776Z,50.885502
2022-11-05T01:35:49.734Z,50.885422
2022-11-05T01:36:49.768Z,50.885399
2022-11-05T01:37:49.728Z,50.885448
2022-11-05T01:38:49.740Z,50.885464
2022-11-05T01:39:49.737Z,50.885460
2022-11-05T01:40:49.772Z,50.885544
2022-11-05T01:41:49.743Z,50.885597
2022-11-05T01:42:49.716Z,50.885567
2022-11-05T01:43:49.685Z,50.885479
2022-11-05T01:44:49.793Z,50.885525
2022-11-05T01:45:49.673Z,50.885513
2022-11-05T01:46:49.701Z,50.885586
2022-11-05T01:47:49.650Z,50.885674
2022-11-05T01:48:49.659Z,50.885082
2022-11-05T01:49:49.642Z,50.885361
2022-11-05T01:50:49.661Z,50.885513
2022-11-05T01:51:49.641Z,50.885479
2022-11-05T01:52:49.644Z,50.885567
2022-11-05T01:53:49.619Z,50.885529
2022-11-05T01:54:49.631Z,50.885479
2022-11-05T01:55:49.724Z,50.885487
2022-11-05T01:56:49.625Z,50.885479
2022-11-05T01:57:49.616Z,50.885529
2022-11-05T01:58:49.586Z,50.885578
2022-11-05T01:59:49.596Z,50.885555
2022-11-05T02:00:49.577Z,50.885483
2022-11-05T02:01:49.712Z,50.885284
2022-11-05T02:02:49.783Z,50.885414
2022-11-05T02:03:49.547Z,50.885414
2022-11-05T02:04:50.547Z,50.885399
2022-11-05T02:05:49.544Z,50.885559
2022-11-05T02:06:49.654Z,50.885529
2022-11-05T02:07:49.633Z,50.885517
2022-11-05T02:08:49.516Z,50.885517
2022-11-05T02:09:49.525Z,50.885395
2022-11-05T02:10:49.529Z,50.885288
2022-11-05T02:11:49.519Z,50.885429
2022-11-05T02:12:49.519Z,50.885647
2022-11-05T02:13:49.491Z,50.885784
2022-11-05T02:14:49.500Z,50.885452
2022-11-05T02:15:49.469Z,50.885445
2022-11-05T02:16:49.456Z,50.885303
2022-11-05T02:17:50.273Z,50.885288
2022-11-05T02:18:49.478Z,50.885338
2022-11-05T02:19:49.470Z,50.885319
2022-11-05T02:20:52.222Z,50.885532
2022-11-05T02:21:49.444Z,50.885292
2022-11-05T02:22:49.432Z,50.885433
2022-11-05T02:23:49.602Z,50.885288
2022-11-05T02:24:49.422Z,50.885166
2022-11-05T02:25:49.411Z,50.885330
2022-11-05T02:26:49.403Z,50.885300
2022-11-05T02:27:49.405Z,50.885300
2022-11-05T02:28:50.422Z,50.885113
2022-11-05T02:29:49.382Z,50.884945
2022-11-05T02:30:49.395Z,50.885235
2022-11-05T02:31:49.391Z,50.885094
2022-11-05T02:32:49.364Z,50.885208
2022-11-05T02:33:49.378Z,50.885258
2022-11-05T02:34:49.366Z,50.885399
2022-11-05T02:35:49.364Z,50.885040
2022-11-05T02:36:49.351Z,50.885090
2022-11-05T02:37:49.351Z,50.885101
2022-11-05T02:38:49.368Z,50.885227
2022-11-05T02:39:49.349Z,50.885502
2022-11-05T02:40:49.348Z,50.885441
2022-11-05T02:41:49.311Z,50.885506
2022-11-05T02:42:49.304Z,50.885571
2022-11-05T02:43:49.313Z,50.885586
2022-11-05T02:44:49.372Z,50.885578
2022-11-05T02:45:49.299Z,50.885471
2022-11-05T02:46:49.302Z,50.885593
2022-11-05T02:47:49.290Z,50.885464
2022-11-05T02:48:49.293Z,50.885513
2022-11-05T02:49:49.295Z,50.885578
2022-11-05T02:50:49.266Z,50.885574
2022-11-05T02:51:49.288Z,50.885635
2022-11-05T02:52:49.320Z,50.885544
2022-11-05T02:53:49.282Z,50.885502
2022-11-05T02:54:49.254Z,50.885468
2022-11-05T02:55:49.228Z,50.885441
2022-11-05T02:56:49.229Z,50.885597
2022-11-05T02:57:49.235Z,50.885612
2022-11-05T02:58:49.317Z,50.885578
2022-11-05T02:59:49.297Z,50.885612
2022-11-05T03:00:49.205Z,50.885433
2022-11-05T03:01:49.359Z,50.885372
2022-11-05T03:02:49.353Z,50.885384
2022-11-05T03:03:49.288Z,50.885441
2022-11-05T03:04:49.194Z,50.885494
2022-11-05T03:05:49.171Z,50.885502
2022-11-05T03:06:49.170Z,50.885571
2022-11-05T03:07:49.177Z,50.885601
2022-11-05T03:08:49.187Z,50.885567
2022-11-05T03:09:49.158Z,50.885490
2022-11-05T03:10:49.135Z,50.885506
2022-11-05T03:11:49.130Z,50.885452
2022-11-05T03:12:49.130Z,50.885464
2022-11-05T03:13:49.110Z,50.885494
2022-11-05T03:14:49.163Z,50.885490
2022-11-05T03:15:49.125Z,50.885571
2022-11-05T03:16:49.106Z,50.885567
2022-11-05T03:17:49.112Z,50.885376
2022-11-05T03:18:49.101Z,50.885437
2022-11-05T03:19:49.144Z,50.885586
2022-11-05T03:20:49.082Z,50.885593
2022-11-05T03:21:49.123Z,50.885517
2022-11-05T03:22:49.591Z,50.885441
2022-11-05T03:23:49.078Z,50.885521
2022-11-05T03:24:49.044Z,50.885586
2022-11-05T03:25:49.153Z,50.885616
2022-11-05T03:26:49.054Z,50.885548
2022-11-05T03:27:49.036Z,50.885715
2022-11-05T03:28:49.033Z,50.885658
2022-11-05T03:29:49.028Z,50.885521
2022-11-05T03:30:49.047Z,50.885597
2022-11-05T03:31:49.023Z,50.885582
2022-11-05T03:32:49.009Z,50.885689
2022-11-05T03:33:49.015Z,50.885487
2022-11-05T03:34:48.998Z,50.885532
2022-11-05T03:35:48.982Z,50.885540
2022-11-05T03:36:49.009Z,50.885624
2022-11-05T03:37:48.984Z,50.885601
2022-11-05T03:38:48.976Z,50.885612
2022-11-05T03:39:48.964Z,50.885490
2022-11-05T03:40:48.963Z,50.885513
2022-11-05T03:41:48.992Z,50.885544
2022-11-05T03:42:48.949Z,50.885529
2022-11-05T03:43:48.932Z,50.885448
2022-11-05T03:44:48.954Z,50.885487
2022-11-05T03:45:48.923Z,50.885582
2022-11-05T03:46:48.925Z,50.885670
2022-11-05T03:47:48.929Z,50.885479
2022-11-05T03:48:48.929Z,50.885445
2022-11-05T03:49:48.920Z,50.885544
2022-11-05T03:50:48.909Z,50.885597
2022-11-05T03:51:48.881Z,50.885536
2022-11-05T03:52:48.917Z,50.885475
2022-11-05T03:53:48.879Z,50.885452
2022-11-05T03:54:48.874Z,50.885426
2022-11-05T03:55:48.892Z,50.885460
2022-11-05T03:56:48.855Z,50.885559
2022-11-05T03:57:48.860Z,50.885578
2022-11-05T03:58:48.964Z,50.885498
2022-11-05T03:59:48.842Z,50.885513
2022-11-05T04:00:48.825Z,50.885452
2022-11-05T04:01:48.945Z,50.885460
2022-11-05T04:02:48.950Z,50.885448
2022-11-05T04:03:48.863Z,50.885342
2022-11-05T04:04:48.817Z,50.885418
2022-11-05T04:05:48.801Z,50.885376
2022-11-05T04:06:48.795Z,50.885525
2022-11-05T04:07:48.767Z,50.885536
2022-11-05T04:08:48.774Z,50.885525
2022-11-05T04:09:48.797Z,50.885490
2022-11-05T04:10:48.781Z,50.885494
2022-11-05T04:11:48.787Z,50.885429
2022-11-05T04:12:48.764Z,50.885418
2022-11-05T04:13:48.768Z,50.885509
2022-11-05T04:14:48.768Z,50.885529
2022-11-05T04:15:48.735Z,50.885551
2022-11-05T04:16:48.716Z,50.885525
2022-11-05T04:17:48.728Z,50.885544
2022-11-05T04:18:48.733Z,50.885502
2022-11-05T04:19:48.732Z,50.885628
2022-11-05T04:20:48.739Z,50.885628
2022-11-05T04:21:48.703Z,50.885540
2022-11-05T04:22:48.693Z,50.885395
2022-11-05T04:23:48.668Z,50.885376
2022-11-05T04:24:48.667Z,50.885319
2022-11-05T04:25:48.772Z,50.885426
2022-11-05T04:26:48.655Z,50.885490
2022-11-05T04:27:48.670Z,50.885529
2022-11-05T04:28:48.630Z,50.885540
2022-11-05T04:29:48.654Z,50.885551
2022-11-05T04:30:48.635Z,50.885525
2022-11-05T04:31:48.652Z,50.885365
2022-11-05T04:32:48.621Z,50.885437
2022-11-05T04:33:48.672Z,50.885483
2022-11-05T04:34:48.620Z,50.885376
2022-11-05T04:35:48.594Z,50.885555
2022-11-05T04:36:48.719Z,50.885643
2022-11-05T04:37:48.600Z,50.885548
2022-11-05T04:38:48.595Z,50.885601
2022-11-05T04:39:48.570Z,50.885464
2022-11-05T04:40:48.569Z,50.885517
2022-11-05T04:41:48.581Z,50.885468
2022-11-05T04:42:48.652Z,50.885624
2022-11-05T04:43:48.545Z,50.885574
2022-11-05T04:44:48.548Z,50.885563
2022-11-05T04:45:48.546Z,50.885563
2022-11-05T04:46:48.532Z,50.885506
2022-11-05T04:47:48.557Z,50.885490
2022-11-05T04:48:48.519Z,50.885426
2022-11-05T04:49:48.525Z,50.885590
2022-11-05T04:50:48.535Z,50.885540
2022-11-05T04:51:48.504Z,50.885582
2022-11-05T04:52:48.512Z,50.885616
2022-11-05T04:53:48.554Z,50.885574
2022-11-05T04:54:48.496Z,50.885609
2022-11-05T04:55:48.482Z,50.885601
2022-11-05T04:56:48.479Z,50.885544
2022-11-05T04:57:48.464Z,50.885605
2022-11-05T04:58:48.495Z,50.885666
2022-11-05T04:59:48.465Z,50.885727
2022-11-05T05:00:48.477Z,50.885746
2022-11-05T05:01:48.530Z,50.885681
2022-11-05T05:02:48.434Z,50.885559
2022-11-05T05:03:48.457Z,50.885616
2022-11-05T05:04:48.555Z,50.885548
2022-11-05T05:05:48.410Z,50.885517
2022-11-05T05:06:48.423Z,50.885582
2022-11-05T05:07:48.410Z,50.885487
2022-11-05T05:08:48.391Z,50.885544
2022-11-05T05:09:48.432Z,50.885563
2022-11-05T05:10:48.398Z,50.885502
2022-11-05T05:11:48.386Z,50.885498
2022-11-05T05:12:48.376Z,50.885582
2022-11-05T05:13:48.401Z,50.885727
2022-11-05T05:14:48.395Z,50.885685
2022-11-05T05:15:48.450Z,50.885624
2022-11-05T05:16:49.363Z,50.885586
2022-11-05T05:17:48.342Z,50.885506
2022-11-05T05:18:48.435Z,50.885586
2022-11-05T05:19:48.376Z,50.885563
2022-11-05T05:20:48.352Z,50.885571
2022-11-05T05:21:48.331Z,50.885567
2022-11-05T05:22:48.328Z,50.885578
2022-11-05T05:23:48.337Z,50.885605
2022-11-05T05:24:52.521Z,50.885532
2022-11-05T05:25:49.340Z,50.885571
2022-11-05T05:26:48.301Z,50.885571
2022-11-05T05:27:48.290Z,50.885551
2022-11-05T05:28:48.343Z,50.885548
2022-11-05T05:29:48.289Z,50.885468
2022-11-05T05:30:48.246Z,50.885460
2022-11-05T05:31:48.271Z,50.885361
2022-11-05T05:32:48.235Z,50.885490
2022-11-05T05:33:48.275Z,50.885513
2022-11-05T05:34:48.234Z,50.885475
2022-11-05T05:35:48.768Z,50.885498
2022-11-05T05:36:48.335Z,50.885365
2022-11-05T05:37:48.223Z,50.885586
2022-11-05T05:38:48.219Z,50.885548
2022-11-05T05:39:48.198Z,50.885544
2022-11-05T05:40:48.194Z,50.885529
2022-11-05T05:41:48.204Z,50.885529
2022-11-05T05:42:48.203Z,50.885540
2022-11-05T05:43:48.203Z,50.885487
2022-11-05T05:44:48.177Z,50.885460
2022-11-05T05:45:48.184Z,50.885551
2022-11-05T05:46:48.198Z,50.885700
2022-11-05T05:47:48.874Z,50.885647
2022-11-05T05:48:48.143Z,50.885540
2022-11-05T05:49:48.142Z,50.885460
2022-11-05T05:50:48.128Z,50.885620
2022-11-05T05:51:48.121Z,50.885517
2022-11-05T05:52:48.141Z,50.885551
2022-11-05T05:53:48.267Z,50.885494
2022-11-05T05:54:48.139Z,50.885456
2022-11-05T05:55:48.101Z,50.885487
2022-11-05T05:56:48.101Z,50.885559
2022-11-05T05:57:48.090Z,50.885525
2022-11-05T05:58:48.187Z,50.885563
2022-11-05T05:59:48.070Z,50.885506
2022-11-05T06:00:48.066Z,50.885593
2022-11-05T06:01:48.151Z,50.885620
2022-11-05T06:02:48.730Z,50.885651
2022-11-05T06:03:48.068Z,50.885738
2022-11-05T06:04:48.170Z,50.885620
2022-11-05T06:05:48.075Z,50.885563
2022-11-05T06:06:48.048Z,50.885612
2022-11-05T06:07:48.016Z,50.885674
2022-11-05T06:08:48.015Z,50.885662
2022-11-05T06:09:48.039Z,50.885731
2022-11-05T06:10:48.051Z,50.885670
2022-11-05T06:11:48.007Z,50.885670
2022-11-05T06:12:47.988Z,50.885601
2022-11-05T06:13:47.997Z,50.885536
2022-11-05T06:14:48.014Z,50.885521
2022-11-05T06:15:48.856Z,50.885475
2022-11-05T06:16:47.996Z,50.885612
2022-11-05T06:17:47.973Z,50.885574
2022-11-05T06:18:47.967Z,50.885582
2022-11-05T06:19:47.953Z,50.885601
2022-11-05T06:20:47.952Z,50.885551
2022-11-05T06:21:48.954Z,50.885601
2022-11-05T06:22:47.963Z,50.885624
2022-11-05T06:23:47.920Z,50.885605
2022-11-05T06:24:47.929Z,50.885609
2022-11-05T06:25:47.923Z,50.885578
2022-11-05T06:26:47.972Z,50.885532
2022-11-05T06:27:47.950Z,50.885475
2022-11-05T06:28:47.903Z,50.885639
2022-11-05T06:29:47.911Z,50.885571
2022-11-05T06:30:47.893Z,50.885498
2022-11-05T06:31:48.013Z,50.885654
2022-11-05T06:32:47.927Z,50.885563
2022-11-05T06:33:47.903Z,50.885582
2022-11-05T06:34:47.864Z,50.885536
2022-11-05T06:35:47.875Z,50.885536
2022-11-05T06:36:47.861Z,50.885597
2022-11-05T06:37:47.883Z,50.885567
2022-11-05T06:38:47.847Z,50.885525
2022-11-05T06:39:47.828Z,50.885544
2022-11-05T06:40:47.848Z,50.885612
2022-11-05T06:42:16.455Z,50.885529
2022-11-05T06:42:48.845Z,50.885380
2022-11-05T06:43:47.811Z,50.885433
2022-11-05T06:44:47.830Z,50.885368
2022-11-05T06:45:47.798Z,50.885498
2022-11-05T06:46:48.869Z,50.885612
2022-11-05T06:47:48.784Z,50.885586
2022-11-05T06:48:48.819Z,50.885590
2022-11-05T06:49:47.784Z,50.885490
2022-11-05T06:50:47.778Z,50.885635
2022-11-05T06:51:47.750Z,50.885513
2022-11-05T06:52:47.762Z,50.885551
2022-11-05T06:53:47.778Z,50.885326
2022-11-05T06:54:47.768Z,50.885445
2022-11-05T06:55:47.752Z,50.885616
2022-11-05T06:56:47.731Z,50.885658
2022-11-05T06:57:47.741Z,50.885509
2022-11-05T06:58:47.754Z,50.885521
2022-11-05T06:59:47.737Z,50.885609
2022-11-05T07:00:47.767Z,50.885670
2022-11-05T07:01:47.832Z,50.885677
2022-11-05T07:02:47.693Z,50.885597
2022-11-05T07:03:47.813Z,50.885689
2022-11-05T07:04:47.717Z,50.885616
2022-11-05T07:05:47.685Z,50.885647
2022-11-05T07:06:47.676Z,50.885582
2022-11-05T07:07:47.663Z,50.885586
2022-11-05T07:08:47.686Z,50.885586
2022-11-05T07:09:47.700Z,50.885624
2022-11-05T07:10:47.643Z,50.885601
2022-11-05T07:11:47.644Z,50.885601
2022-11-05T07:12:47.657Z,50.885689
2022-11-05T07:13:47.653Z,50.885605
2022-11-05T07:14:47.626Z,50.885666
2022-11-05T07:15:47.628Z,50.885666
2022-11-05T07:16:47.627Z,50.885784
2022-11-05T07:17:47.608Z,50.885521
2022-11-05T07:18:47.626Z,50.885639
2022-11-05T07:19:47.628Z,50.885578
2022-11-05T07:20:47.605Z,50.885693
2022-11-05T07:21:47.589Z,50.885551
2022-11-05T07:22:47.568Z,50.885410
2022-11-05T07:23:47.608Z,50.885342
2022-11-05T07:24:47.591Z,50.885597
2022-11-05T07:25:47.576Z,50.885860
2022-11-05T07:26:47.547Z,50.885616
2022-11-05T07:27:47.558Z,50.885582
2022-11-05T07:28:47.561Z,50.885582
2022-11-05T07:29:47.557Z,50.885586
2022-11-05T07:30:47.532Z,50.885506
2022-11-05T07:31:47.521Z,50.885532
2022-11-05T07:32:47.517Z,50.885494
2022-11-05T07:33:47.523Z,50.885517
2022-11-05T07:34:47.515Z,50.885475
2022-11-05T07:35:47.511Z,50.885551
2022-11-05T07:36:47.521Z,50.885574
2022-11-05T07:37:47.499Z,50.885532
2022-11-05T07:38:47.537Z,50.885540
2022-11-05T07:39:47.506Z,50.885574
2022-11-05T07:40:47.479Z,50.885578
2022-11-05T07:41:47.478Z,50.885597
2022-11-05T07:42:47.471Z,50.885567
2022-11-05T07:43:47.468Z,50.885567
2022-11-05T07:44:47.525Z,50.885559
2022-11-05T07:45:47.462Z,50.885578
2022-11-05T07:46:47.432Z,50.885551
2022-11-05T07:47:47.442Z,50.885555
2022-11-05T07:48:47.451Z,50.885532
2022-11-05T07:49:47.436Z,50.885571
2022-11-05T07:50:47.427Z,50.885559
2022-11-05T07:51:47.404Z,50.885551
2022-11-05T07:52:47.448Z,50.885555
2022-11-05T07:53:47.411Z,50.885532
2022-11-05T07:54:47.438Z,50.885590
2022-11-05T07:55:47.375Z,50.885628
2022-11-05T07:56:47.373Z,50.885582
2022-11-05T07:57:47.361Z,50.885433
2022-11-05T07:58:47.402Z,50.885452
2022-11-05T07:59:47.383Z,50.885525
2022-11-05T08:00:47.467Z,50.885513
2022-11-05T08:01:47.513Z,50.885509
2022-11-05T08:02:47.617Z,50.885479
2022-11-05T08:03:47.859Z,50.885418
2022-11-05T08:04:47.370Z,50.885422
2022-11-05T08:05:47.325Z,50.885475
2022-11-05T08:06:47.293Z,50.885529
2022-11-05T08:07:47.299Z,50.885689
2022-11-05T08:08:47.318Z,50.885498
2022-11-05T08:09:47.314Z,50.885525
2022-11-05T08:10:47.282Z,50.885574
2022-11-05T08:11:47.304Z,50.885582
2022-11-05T08:12:47.282Z,50.885540
2022-11-05T08:13:47.278Z,50.885506
2022-11-05T08:14:47.275Z,50.885502
2022-11-05T08:15:47.255Z,50.885536
2022-11-05T08:16:47.283Z,50.885525
2022-11-05T08:17:47.255Z,50.885406
2022-11-05T08:18:47.265Z,50.885406
2022-11-05T08:19:47.334Z,50.885506
2022-11-05T08:20:47.248Z,50.885540
2022-11-05T08:21:47.227Z,50.885574
2022-11-05T08:22:47.218Z,50.885651
2022-11-05T08:23:47.228Z,50.885559
2022-11-05T08:24:47.285Z,50.885548
2022-11-05T08:25:47.207Z,50.885529
2022-11-05T08:26:47.213Z,50.885452
2022-11-05T08:27:47.199Z,50.885559
2022-11-05T08:28:47.201Z,50.885525
2022-11-05T08:29:47.340Z,50.885525
2022-11-05T08:30:47.196Z,50.885571
2022-11-05T08:31:47.162Z,50.885525
2022-11-05T08:32:48.192Z,50.885639
2022-11-05T08:33:47.185Z,50.885639
2022-11-05T08:34:47.189Z,50.885612
2022-11-05T08:35:47.212Z,50.885616
2022-11-05T08:36:47.144Z,50.885551
2022-11-05T08:37:47.235Z,50.885574
2022-11-05T08:38:47.174Z,50.885578
2022-11-05T08:39:47.162Z,50.885567
2022-11-05T08:40:47.134Z,50.885639
2022-11-05T08:41:47.156Z,50.885639
2022-11-05T08:42:47.102Z,50.885632
2022-11-05T08:43:47.115Z,50.885567
2022-11-05T08:44:47.102Z,50.885551
2022-11-05T08:45:47.208Z,50.885422
2022-11-05T08:46:47.092Z,50.885399
2022-11-05T08:47:47.075Z,50.885471
2022-11-05T08:48:47.108Z,50.885380
2022-11-05T08:49:47.062Z,50.885723
2022-11-05T08:50:47.084Z,50.885395
2022-11-05T08:51:47.073Z,50.885494
2022-11-05T08:52:47.057Z,50.885490
2022-11-05T08:53:47.060Z,50.885509
2022-11-05T08:54:47.057Z,50.885506
2022-11-05T08:55:47.047Z,50.885391
2022-11-05T08:56:47.152Z,50.885460
2022-11-05T08:57:47.011Z,50.885639
2022-11-05T08:58:47.018Z,50.885769
2022-11-05T08:59:47.031Z,50.885685
2022-11-05T09:00:47.061Z,50.885704
2022-11-05T09:01:47.294Z,50.885731
2022-11-05T09:02:46.992Z,50.885639
2022-11-05T09:03:46.995Z,50.885769
2022-11-05T09:04:46.991Z,50.885628
2022-11-05T09:05:46.985Z,50.885799
2022-11-05T09:06:46.980Z,50.886147
2022-11-05T09:07:46.990Z,50.886074
2022-11-05T09:08:47.021Z,50.886086
2022-11-05T09:09:46.936Z,50.886169
2022-11-05T09:10:46.951Z,50.886078
2022-11-05T09:12:10.690Z,50.886059
2022-11-05T09:12:48.983Z,50.885830
2022-11-05T09:13:46.936Z,50.885880
2022-11-05T09:14:46.946Z,50.885727
2022-11-05T09:15:46.930Z,50.885647
2022-11-05T09:16:46.923Z,50.885670
2022-11-05T09:17:46.930Z,50.885693
2022-11-05T09:18:46.928Z,50.885647
2022-11-05T09:19:46.940Z,50.885704
2022-11-05T09:20:46.911Z,50.885712
2022-11-05T09:21:46.887Z,50.885864
2022-11-05T09:22:46.887Z,50.885864
2022-11-05T09:23:46.896Z,50.885788
2022-11-05T09:24:46.860Z,50.885838
2022-11-05T09:25:46.892Z,50.885868
2022-11-05T09:26:46.844Z,50.885788
2022-11-05T09:27:46.903Z,50.885662
2022-11-05T09:28:46.904Z,50.885670
2022-11-05T09:29:46.839Z,50.885761
2022-11-05T09:30:46.866Z,50.885754
2022-11-05T09:31:46.883Z,50.885796
2022-11-05T09:32:46.843Z,50.885738
2022-11-05T09:33:46.871Z,50.885769
2022-11-05T09:34:46.854Z,50.885731
2022-11-05T09:35:46.836Z,50.885677
2022-11-05T09:36:46.817Z,50.885632
2022-11-05T09:37:46.818Z,50.885525
2022-11-05T09:38:46.885Z,50.885368
2022-11-05T09:39:46.814Z,50.885437
2022-11-05T09:40:46.834Z,50.885414
2022-11-05T09:41:46.780Z,50.885345
2022-11-05T09:42:46.842Z,50.885445
2022-11-05T09:43:46.882Z,50.885384
2022-11-05T09:44:47.751Z,50.885338
2022-11-05T09:45:46.767Z,50.885368
2022-11-05T09:46:46.727Z,50.885380
2022-11-05T09:47:46.800Z,50.885410
2022-11-05T09:48:46.753Z,50.885479
2022-11-05T09:49:46.741Z,50.885544
2022-11-05T09:50:46.733Z,50.885483
2022-11-05T09:51:46.778Z,50.885460
2022-11-05T09:52:46.751Z,50.885536
2022-11-05T09:53:46.719Z,50.885536
2022-11-05T09:54:46.693Z,50.885468
2022-11-05T09:55:46.707Z,50.885399
2022-11-05T09:56:46.694Z,50.885563
2022-11-05T09:57:46.706Z,50.885521
2022-11-05T09:58:46.763Z,50.885525
2022-11-05T09:59:46.768Z,50.885597
2022-11-05T10:00:46.763Z,50.885525
2022-11-05T10:01:46.768Z,50.885521
2022-11-05T10:02:46.686Z,50.885891
2022-11-05T10:03:46.684Z,50.885635
2022-11-05T10:04:46.710Z,50.885536
2022-11-05T10:05:46.719Z,50.885532
2022-11-05T10:06:46.654Z,50.885513
2022-11-05T10:07:46.641Z,50.885506
2022-11-05T10:08:46.674Z,50.885513
2022-11-05T10:09:46.643Z,50.885590
2022-11-05T10:10:46.633Z,50.885563
2022-11-05T10:11:46.616Z,50.885490
2022-11-05T10:12:46.622Z,50.885567
2022-11-05T10:13:46.623Z,50.885567
2022-11-05T10:14:46.601Z,50.885529
2022-11-05T10:15:46.587Z,50.885517
2022-11-05T10:16:46.613Z,50.885582
2022-11-05T10:17:46.651Z,50.885559
2022-11-05T10:18:46.614Z,50.885559
2022-11-05T10:19:46.575Z,50.885612
2022-11-05T10:20:46.585Z,50.885536
2022-11-05T10:22:49.758Z,50.885719
2022-11-05T10:23:46.557Z,50.885735
2022-11-05T10:24:46.604Z,50.885696
2022-11-05T10:25:46.539Z,50.885651
2022-11-05T10:26:46.568Z,50.885521
2022-11-05T10:27:46.560Z,50.885597
2022-11-05T10:28:47.563Z,50.885571
2022-11-05T10:29:46.563Z,50.885670
2022-11-05T10:30:46.567Z,50.885681
2022-11-05T10:31:46.566Z,50.885620
2022-11-05T10:32:46.548Z,50.885590
2022-11-05T10:33:46.546Z,50.885609
2022-11-05T10:34:46.533Z,50.885590
2022-11-05T10:35:46.503Z,50.885555
2022-11-05T10:36:46.505Z,50.885509
2022-11-05T10:37:46.488Z,50.885502
2022-11-05T10:38:46.503Z,50.885475
2022-11-05T10:39:46.501Z,50.885582
2022-11-05T10:40:46.477Z,50.885670
2022-11-05T10:41:46.475Z,50.885693
2022-11-05T10:42:46.461Z,50.885696
2022-11-05T10:43:46.805Z,50.885647
2022-11-05T10:44:46.466Z,50.885620
2022-11-05T10:45:46.443Z,50.885662
2022-11-05T10:46:46.471Z,50.885571
2022-11-05T10:47:46.438Z,50.885605
2022-11-05T10:48:46.451Z,50.885532
2022-11-05T10:49:46.436Z,50.885605
2022-11-05T10:50:46.397Z,50.885647
2022-11-05T10:51:46.438Z,50.885769
2022-11-05T10:52:46.426Z,50.885647
2022-11-05T10:53:46.420Z,50.885582
2022-11-05T10:54:46.434Z,50.885571
2022-11-05T10:55:46.415Z,50.885597
2022-11-05T10:56:46.389Z,50.885593
2022-11-05T10:57:46.372Z,50.885578
2022-11-05T10:58:46.398Z,50.885567
2022-11-05T10:59:46.465Z,50.885590
2022-11-05T11:00:46.487Z,50.885445
2022-11-05T11:01:46.582Z,50.885506
2022-11-05T11:02:46.362Z,50.885559
2022-11-05T11:03:46.385Z,50.885571
2022-11-05T11:04:46.358Z,50.885567
2022-11-05T11:05:46.334Z,50.885525
2022-11-05T11:06:46.328Z,50.885563
2022-11-05T11:07:46.321Z,50.885521
2022-11-05T11:08:46.330Z,50.885509
2022-11-05T11:09:46.326Z,50.885498
2022-11-05T11:10:46.287Z,50.885464
2022-11-05T11:11:46.315Z,50.885494
2022-11-05T11:12:46.312Z,50.885456
2022-11-05T11:13:46.286Z,50.885483
2022-11-05T11:14:46.294Z,50.885593
2022-11-05T11:15:46.314Z,50.885586
2022-11-05T11:16:46.268Z,50.885540
2022-11-05T11:17:46.271Z,50.885578
2022-11-05T11:18:46.288Z,50.885651
2022-11-05T11:19:46.345Z,50.885601
2022-11-05T11:20:46.263Z,50.885567
2022-11-05T11:21:46.241Z,50.885479
2022-11-05T11:22:46.222Z,50.885509
2022-11-05T11:23:46.234Z,50.885479
2022-11-05T11:24:46.250Z,50.885307
2022-11-05T11:25:46.217Z,50.885426